Aviation Digital Data Service (ADDS)

Output produced by METARs form (0045 UTC 17 January 2017)
found at http://aviationweather.gov/adds/metars/
 
KILG 162353Z 1700/1724 22004KT P6SM BKN035 OVC080 
     TEMPO 1702/1706 6SM -SHRA OVC025 
     FM170600 VRB03KT P6SM OVC025 
     TEMPO 1706/1710 5SM -SHRA BR OVC015 
     FM171000 12003KT 2SM -RA BR OVC009 
     FM171400 14005KT 1SM -RA BR OVC005 
     FM172100 16005KT 2SM -DZ BR OVC004